Maywood, California
Current Conditions -  °F | °C
As of 2:47 AM on Friday 24 Oct 2014 (Local Time) from KCQT Reporting Station
Clear Clear  
Wind Chill: 63°   Ceiling: Unl
Heat Index: 63°   Visibility: 10mi
Dew Point: 57°   Wind: 0mph
Humidity: 81%   Direction: NA
Pressure: 29.95"   Gusts: NA
Location:  33.99°N, 118.18°W
Report Text: KCQT 240947Z AUTO 00000KT 10SM CLR 17/14 A2995 RMK AO2 SLP140 T01720139
Loading
Personal Weather Stations






























Interactive Weather Map
Tropical Storm Tracking
New forecast layout! Learn more

10-Day Weather Forecast

Advertisements
Track Severe Weather on mobile